Terminal Aerodrome Forecast
Issued by NWS

Home | Current Version | Previous Version | Text Only | Print | Product List | Glossary Off
Versions: 1 2 3 4 5 6 7 8 9 10 11 12 13 14 15 16 17 18 19 20 21 22 23 24

000
FTUS43 KGLD 220529
TAFMCK
TAF
KMCK 220529Z 2206/2306 17015G24KT P6SM FEW250 WS020/19040KT
     FM221500 19016G24KT P6SM FEW250 WS020/21030KT
     FM222200 18020KT P6SM SCT250 WS020/19030KT=

USA.gov is the U.S. government's official web portal to all federal, state and local government web resources and services.